Greenport, New York
Current Conditions -  °F | °C
As of 11:55 AM on Tuesday 27 Jan 2015 (Local Time) from KSNC Reporting Station
Light Snow Light Snow  
Wind Chill:   Ceiling: Unl
Heat Index: 21°   Visibility: 3mi
Dew Point: 14°   Wind: 26mph
Humidity: 74%   Direction: 350°N
Pressure: 29.53"   Gusts: 36mph
Location:  41.1°N, 72.36°W
Report Text: KSNC 271655Z AUTO 35023G31KT 3SM -SN FEW024 FEW042 FEW075 M06/M10 A2953 RMK AO2 P0011
Loading
Personal Weather Stations






























Interactive Weather Map New forecast layout! Learn more

10-Day Weather Forecast

Advertisements
Track Severe Weather on mobile